sensor_id;sensor_type;location;lat;lon;timestamp;P1;durP1;ratioP1;P2;durP2;ratioP2
42904;SDS011;28550;51.228;4.528;2023-10-19T00:00:34;4.07;;;3.20;;
42904;SDS011;28550;51.228;4.528;2023-10-19T00:03:01;5.95;;;2.55;;
42904;SDS011;28550;51.228;4.528;2023-10-19T00:05:31;3.72;;;2.30;;
42904;SDS011;28550;51.228;4.528;2023-10-19T00:07:57;5.97;;;2.08;;
42904;SDS011;28550;51.228;4.528;2023-10-19T00:10:25;4.30;;;2.28;;
42904;SDS011;28550;51.228;4.528;2023-10-19T00:12:58;6.22;;;2.40;;
42904;SDS011;28550;51.228;4.528;2023-10-19T00:15:29;3.97;;;1.73;;
42904;SDS011;28550;51.228;4.528;2023-10-19T00:17:57;8.45;;;1.80;;
42904;SDS011;28550;51.228;4.528;2023-10-19T00:20:24;4.95;;;1.67;;
42904;SDS011;28550;51.228;4.528;2023-10-19T00:23:17;6.10;;;1.88;;
42904;SDS011;28550;51.228;4.528;2023-10-19T00:26:08;4.65;;;1.48;;
42904;SDS011;28550;51.228;4.528;2023-10-19T00:28:35;3.35;;;1.75;;
42904;SDS011;28550;51.228;4.528;2023-10-19T00:31:01;3.25;;;1.17;;
42904;SDS011;28550;51.228;4.528;2023-10-19T00:33:34;4.53;;;1.50;;
42904;SDS011;28550;51.228;4.528;2023-10-19T00:36:10;4.88;;;1.10;;
42904;SDS011;28550;51.228;4.528;2023-10-19T00:38:38;3.85;;;1.27;;
42904;SDS011;28550;51.228;4.528;2023-10-19T00:41:12;7.63;;;1.60;;
42904;SDS011;28550;51.228;4.528;2023-10-19T00:43:42;4.40;;;1.10;;
42904;SDS011;28550;51.228;4.528;2023-10-19T00:46:09;4.18;;;1.02;;
42904;SDS011;28550;51.228;4.528;2023-10-19T00:48:57;5.13;;;0.98;;
42904;SDS011;28550;51.228;4.528;2023-10-19T00:51:35;3.78;;;1.35;;
42904;SDS011;28550;51.228;4.528;2023-10-19T00:56:40;3.63;;;1.25;;
42904;SDS011;28550;51.228;4.528;2023-10-19T00:59:13;6.47;;;1.55;;
42904;SDS011;28550;51.228;4.528;2023-10-19T01:01:45;3.72;;;1.65;;
42904;SDS011;28550;51.228;4.528;2023-10-19T01:04:14;4.85;;;1.00;;
42904;SDS011;28550;51.228;4.528;2023-10-19T01:09:29;2.00;;;1.20;;
42904;SDS011;28550;51.228;4.528;2023-10-19T01:11:59;4.30;;;1.98;;
42904;SDS011;28550;51.228;4.528;2023-10-19T01:14:29;3.70;;;1.00;;
42904;SDS011;28550;51.228;4.528;2023-10-19T01:16:57;2.47;;;1.30;;
42904;SDS011;28550;51.228;4.528;2023-10-19T01:19:24;3.45;;;1.00;;
42904;SDS011;28550;51.228;4.528;2023-10-19T01:21:52;2.03;;;1.10;;
42904;SDS011;28550;51.228;4.528;2023-10-19T01:24:23;3.30;;;1.10;;
42904;SDS011;28550;51.228;4.528;2023-10-19T01:27:07;1.80;;;1.05;;
42904;SDS011;28550;51.228;4.528;2023-10-19T01:29:36;8.20;;;1.98;;
42904;SDS011;28550;51.228;4.528;2023-10-19T01:32:04;3.13;;;1.63;;
42904;SDS011;28550;51.228;4.528;2023-10-19T01:34:31;1.17;;;1.08;;
42904;SDS011;28550;51.228;4.528;2023-10-19T01:36:59;5.00;;;1.08;;
42904;SDS011;28550;51.228;4.528;2023-10-19T01:39:29;7.78;;;1.52;;
42904;SDS011;28550;51.228;4.528;2023-10-19T01:42:01;2.67;;;1.07;;
42904;SDS011;28550;51.228;4.528;2023-10-19T01:44:29;4.35;;;1.15;;
42904;SDS011;28550;51.228;4.528;2023-10-19T01:46:56;3.08;;;1.35;;
42904;SDS011;28550;51.228;4.528;2023-10-19T01:49:22;3.08;;;1.20;;
42904;SDS011;28550;51.228;4.528;2023-10-19T01:51:53;3.47;;;1.23;;
42904;SDS011;28550;51.228;4.528;2023-10-19T01:54:20;1.83;;;1.10;;
42904;SDS011;28550;51.228;4.528;2023-10-19T01:56:53;3.63;;;1.30;;
42904;SDS011;28550;51.228;4.528;2023-10-19T01:59:24;5.38;;;1.73;;
42904;SDS011;28550;51.228;4.528;2023-10-19T02:01:54;3.95;;;1.13;;
42904;SDS011;28550;51.228;4.528;2023-10-19T02:04:20;3.28;;;1.10;;
42904;SDS011;28550;51.228;4.528;2023-10-19T02:06:50;5.80;;;1.02;;
42904;SDS011;28550;51.228;4.528;2023-10-19T02:09:19;1.10;;;0.85;;
42904;SDS011;28550;51.228;4.528;2023-10-19T02:11:52;1.85;;;0.93;;
42904;SDS011;28550;51.228;4.528;2023-10-19T02:14:21;2.90;;;1.50;;
42904;SDS011;28550;51.228;4.528;2023-10-19T02:19:17;6.80;;;1.48;;
42904;SDS011;28550;51.228;4.528;2023-10-19T02:21:43;5.55;;;1.83;;
42904;SDS011;28550;51.228;4.528;2023-10-19T02:24:13;1.88;;;1.17;;
42904;SDS011;28550;51.228;4.528;2023-10-19T02:26:41;2.13;;;1.10;;
42904;SDS011;28550;51.228;4.528;2023-10-19T02:29:08;2.67;;;0.93;;
42904;SDS011;28550;51.228;4.528;2023-10-19T02:31:39;1.83;;;1.00;;
42904;SDS011;28550;51.228;4.528;2023-10-19T02:34:06;5.50;;;1.45;;
42904;SDS011;28550;51.228;4.528;2023-10-19T02:36:34;6.45;;;1.33;;
42904;SDS011;28550;51.228;4.528;2023-10-19T02:39:02;1.75;;;1.30;;
42904;SDS011;28550;51.228;4.528;2023-10-19T02:41:33;4.97;;;1.35;;
42904;SDS011;28550;51.228;4.528;2023-10-19T02:44:10;3.55;;;1.63;;
42904;SDS011;28550;51.228;4.528;2023-10-19T02:46:43;4.85;;;1.50;;
42904;SDS011;28550;51.228;4.528;2023-10-19T02:49:09;3.38;;;1.33;;
42904;SDS011;28550;51.228;4.528;2023-10-19T02:51:44;5.05;;;1.65;;
42904;SDS011;28550;51.228;4.528;2023-10-19T02:54:10;2.25;;;1.38;;
42904;SDS011;28550;51.228;4.528;2023-10-19T02:56:43;3.33;;;1.08;;
42904;SDS011;28550;51.228;4.528;2023-10-19T02:59:16;6.63;;;1.38;;
42904;SDS011;28550;51.228;4.528;2023-10-19T03:01:47;7.97;;;1.50;;
42904;SDS011;28550;51.228;4.528;2023-10-19T03:04:12;6.93;;;1.65;;
42904;SDS011;28550;51.228;4.528;2023-10-19T03:06:38;9.60;;;1.83;;
42904;SDS011;28550;51.228;4.528;2023-10-19T03:09:06;6.25;;;1.30;;
42904;SDS011;28550;51.228;4.528;2023-10-19T03:11:40;5.90;;;1.55;;
42904;SDS011;28550;51.228;4.528;2023-10-19T03:14:07;8.38;;;2.25;;
42904;SDS011;28550;51.228;4.528;2023-10-19T03:16:35;4.93;;;1.20;;
42904;SDS011;28550;51.228;4.528;2023-10-19T03:19:02;7.47;;;1.80;;
42904;SDS011;28550;51.228;4.528;2023-10-19T03:21:29;5.80;;;1.40;;
42904;SDS011;28550;51.228;4.528;2023-10-19T03:23:59;8.35;;;1.70;;
42904;SDS011;28550;51.228;4.528;2023-10-19T03:26:37;20.00;;;3.42;;
42904;SDS011;28550;51.228;4.528;2023-10-19T03:29:05;8.25;;;1.50;;
42904;SDS011;28550;51.228;4.528;2023-10-19T03:31:37;7.25;;;2.28;;
42904;SDS011;28550;51.228;4.528;2023-10-19T03:34:09;6.72;;;1.85;;
42904;SDS011;28550;51.228;4.528;2023-10-19T03:36:37;4.82;;;1.85;;
42904;SDS011;28550;51.228;4.528;2023-10-19T03:39:07;3.05;;;1.20;;
42904;SDS011;28550;51.228;4.528;2023-10-19T03:41:39;3.17;;;1.35;;
42904;SDS011;28550;51.228;4.528;2023-10-19T03:44:13;3.67;;;1.95;;
42904;SDS011;28550;51.228;4.528;2023-10-19T03:47:02;5.95;;;1.73;;
42904;SDS011;28550;51.228;4.528;2023-10-19T03:49:30;5.03;;;1.83;;
42904;SDS011;28550;51.228;4.528;2023-10-19T03:51:58;2.15;;;1.30;;
42904;SDS011;28550;51.228;4.528;2023-10-19T03:54:28;5.43;;;1.70;;
42904;SDS011;28550;51.228;4.528;2023-10-19T03:56:54;4.30;;;1.40;;
42904;SDS011;28550;51.228;4.528;2023-10-19T03:59:26;3.78;;;1.50;;
42904;SDS011;28550;51.228;4.528;2023-10-19T04:02:00;3.58;;;1.95;;
42904;SDS011;28550;51.228;4.528;2023-10-19T04:04:32;3.15;;;1.60;;
42904;SDS011;28550;51.228;4.528;2023-10-19T04:06:58;4.80;;;1.80;;
42904;SDS011;28550;51.228;4.528;2023-10-19T04:09:24;13.05;;;2.70;;
42904;SDS011;28550;51.228;4.528;2023-10-19T04:11:57;3.85;;;1.60;;
42904;SDS011;28550;51.228;4.528;2023-10-19T04:14:29;4.88;;;1.55;;
42904;SDS011;28550;51.228;4.528;2023-10-19T04:16:55;5.22;;;1.63;;
42904;SDS011;28550;51.228;4.528;2023-10-19T04:19:21;7.25;;;2.08;;
42904;SDS011;28550;51.228;4.528;2023-10-19T04:21:47;10.25;;;3.28;;
42904;SDS011;28550;51.228;4.528;2023-10-19T04:24:15;6.22;;;1.65;;
42904;SDS011;28550;51.228;4.528;2023-10-19T04:26:43;4.50;;;1.80;;
42904;SDS011;28550;51.228;4.528;2023-10-19T04:29:09;6.60;;;2.10;;
42904;SDS011;28550;51.228;4.528;2023-10-19T04:31:37;5.05;;;1.98;;
42904;SDS011;28550;51.228;4.528;2023-10-19T04:34:21;8.65;;;2.10;;
42904;SDS011;28550;51.228;4.528;2023-10-19T04:36:55;8.18;;;2.20;;
42904;SDS011;28550;51.228;4.528;2023-10-19T04:39:25;8.18;;;2.80;;
42904;SDS011;28550;51.228;4.528;2023-10-19T04:41:53;6.93;;;2.22;;
42904;SDS011;28550;51.228;4.528;2023-10-19T04:44:18;3.85;;;2.13;;
42904;SDS011;28550;51.228;4.528;2023-10-19T04:46:44;5.05;;;2.00;;
42904;SDS011;28550;51.228;4.528;2023-10-19T04:49:11;8.38;;;2.50;;
42904;SDS011;28550;51.228;4.528;2023-10-19T04:51:46;8.45;;;2.40;;
42904;SDS011;28550;51.228;4.528;2023-10-19T04:54:11;7.65;;;1.90;;
42904;SDS011;28550;51.228;4.528;2023-10-19T04:56:37;8.27;;;2.13;;
42904;SDS011;28550;51.228;4.528;2023-10-19T04:59:03;6.53;;;1.88;;
42904;SDS011;28550;51.228;4.528;2023-10-19T05:01:30;7.35;;;2.17;;
42904;SDS011;28550;51.228;4.528;2023-10-19T05:03:58;6.05;;;2.47;;
42904;SDS011;28550;51.228;4.528;2023-10-19T05:06:24;10.13;;;2.15;;
42904;SDS011;28550;51.228;4.528;2023-10-19T05:08:55;11.98;;;3.20;;
42904;SDS011;28550;51.228;4.528;2023-10-19T05:11:22;8.02;;;2.95;;
42904;SDS011;28550;51.228;4.528;2023-10-19T05:13:48;7.60;;;2.53;;
42904;SDS011;28550;51.228;4.528;2023-10-19T05:16:13;6.78;;;2.30;;
42904;SDS011;28550;51.228;4.528;2023-10-19T05:18:39;7.53;;;2.78;;
42904;SDS011;28550;51.228;4.528;2023-10-19T05:21:05;7.28;;;3.70;;
42904;SDS011;28550;51.228;4.528;2023-10-19T05:23:30;5.60;;;2.63;;
42904;SDS011;28550;51.228;4.528;2023-10-19T05:26:00;8.60;;;2.65;;
42904;SDS011;28550;51.228;4.528;2023-10-19T05:28:35;8.90;;;2.65;;
42904;SDS011;28550;51.228;4.528;2023-10-19T05:31:01;5.32;;;2.40;;
42904;SDS011;28550;51.228;4.528;2023-10-19T05:33:27;8.80;;;2.75;;
42904;SDS011;28550;51.228;4.528;2023-10-19T05:35:54;4.63;;;2.63;;
42904;SDS011;28550;51.228;4.528;2023-10-19T05:38:20;10.10;;;3.47;;
42904;SDS011;28550;51.228;4.528;2023-10-19T05:40:47;7.72;;;2.65;;
42904;SDS011;28550;51.228;4.528;2023-10-19T05:43:15;7.10;;;2.90;;
42904;SDS011;28550;51.228;4.528;2023-10-19T05:45:40;8.82;;;3.20;;
42904;SDS011;28550;51.228;4.528;2023-10-19T05:48:06;6.20;;;2.92;;
42904;SDS011;28550;51.228;4.528;2023-10-19T05:50:33;10.27;;;2.97;;
42904;SDS011;28550;51.228;4.528;2023-10-19T05:52:59;8.73;;;2.95;;
42904;SDS011;28550;51.228;4.528;2023-10-19T05:55:25;7.25;;;2.97;;
42904;SDS011;28550;51.228;4.528;2023-10-19T05:57:51;12.52;;;3.50;;
42904;SDS011;28550;51.228;4.528;2023-10-19T06:00:16;8.30;;;3.55;;
42904;SDS011;28550;51.228;4.528;2023-10-19T06:02:45;10.80;;;3.72;;
42904;SDS011;28550;51.228;4.528;2023-10-19T06:05:23;7.82;;;2.65;;
42904;SDS011;28550;51.228;4.528;2023-10-19T06:07:49;7.97;;;2.85;;
42904;SDS011;28550;51.228;4.528;2023-10-19T06:10:18;12.77;;;3.67;;
42904;SDS011;28550;51.228;4.528;2023-10-19T06:12:46;10.95;;;4.07;;
42904;SDS011;28550;51.228;4.528;2023-10-19T06:15:16;10.18;;;3.60;;
42904;SDS011;28550;51.228;4.528;2023-10-19T06:17:43;13.82;;;4.22;;
42904;SDS011;28550;51.228;4.528;2023-10-19T06:20:11;9.18;;;3.42;;
42904;SDS011;28550;51.228;4.528;2023-10-19T06:23:09;9.07;;;3.17;;
42904;SDS011;28550;51.228;4.528;2023-10-19T06:25:36;16.33;;;4.15;;
42904;SDS011;28550;51.228;4.528;2023-10-19T06:28:08;10.90;;;3.15;;
42904;SDS011;28550;51.228;4.528;2023-10-19T06:30:34;9.90;;;2.90;;
42904;SDS011;28550;51.228;4.528;2023-10-19T06:33:11;8.52;;;3.22;;
42904;SDS011;28550;51.228;4.528;2023-10-19T06:35:37;7.28;;;2.95;;
42904;SDS011;28550;51.228;4.528;2023-10-19T06:38:04;13.52;;;3.30;;
42904;SDS011;28550;51.228;4.528;2023-10-19T06:40:33;8.48;;;2.72;;
42904;SDS011;28550;51.228;4.528;2023-10-19T06:43:03;8.38;;;3.80;;
42904;SDS011;28550;51.228;4.528;2023-10-19T06:45:45;10.40;;;2.92;;
42904;SDS011;28550;51.228;4.528;2023-10-19T06:48:20;11.68;;;4.13;;
42904;SDS011;28550;51.228;4.528;2023-10-19T06:51:05;8.57;;;2.45;;
42904;SDS011;28550;51.228;4.528;2023-10-19T06:53:31;12.23;;;3.63;;
42904;SDS011;28550;51.228;4.528;2023-10-19T06:55:58;8.68;;;2.65;;
42904;SDS011;28550;51.228;4.528;2023-10-19T06:58:24;12.65;;;3.20;;
42904;SDS011;28550;51.228;4.528;2023-10-19T07:00:52;10.68;;;2.80;;
42904;SDS011;28550;51.228;4.528;2023-10-19T07:03:32;9.88;;;2.80;;
42904;SDS011;28550;51.228;4.528;2023-10-19T07:05:58;7.20;;;2.90;;
42904;SDS011;28550;51.228;4.528;2023-10-19T07:11:30;8.60;;;2.80;;
42904;SDS011;28550;51.228;4.528;2023-10-19T07:17:01;8.10;;;2.75;;
42904;SDS011;28550;51.228;4.528;2023-10-19T07:19:30;4.63;;;2.30;;
42904;SDS011;28550;51.228;4.528;2023-10-19T07:22:09;9.45;;;2.80;;
42904;SDS011;28550;51.228;4.528;2023-10-19T07:24:35;12.57;;;2.58;;
42904;SDS011;28550;51.228;4.528;2023-10-19T07:27:03;8.68;;;2.80;;
42904;SDS011;28550;51.228;4.528;2023-10-19T07:29:33;7.22;;;2.53;;
42904;SDS011;28550;51.228;4.528;2023-10-19T07:32:01;6.93;;;2.35;;
42904;SDS011;28550;51.228;4.528;2023-10-19T07:34:32;6.88;;;2.42;;
42904;SDS011;28550;51.228;4.528;2023-10-19T07:37:05;10.10;;;2.13;;
42904;SDS011;28550;51.228;4.528;2023-10-19T07:45:02;6.35;;;2.35;;
42904;SDS011;28550;51.228;4.528;2023-10-19T07:47:29;6.45;;;1.90;;
42904;SDS011;28550;51.228;4.528;2023-10-19T07:49:59;8.00;;;1.80;;
42904;SDS011;28550;51.228;4.528;2023-10-19T07:52:36;6.38;;;2.63;;
42904;SDS011;28550;51.228;4.528;2023-10-19T07:55:04;5.45;;;1.90;;
42904;SDS011;28550;51.228;4.528;2023-10-19T07:57:35;7.80;;;2.15;;
42904;SDS011;28550;51.228;4.528;2023-10-19T08:00:01;7.47;;;1.77;;
42904;SDS011;28550;51.228;4.528;2023-10-19T08:02:30;8.82;;;2.00;;
42904;SDS011;28550;51.228;4.528;2023-10-19T08:04:59;9.77;;;2.40;;
42904;SDS011;28550;51.228;4.528;2023-10-19T08:07:26;7.15;;;2.08;;
42904;SDS011;28550;51.228;4.528;2023-10-19T08:09:53;10.10;;;2.17;;
42904;SDS011;28550;51.228;4.528;2023-10-19T08:12:20;7.80;;;2.10;;
42904;SDS011;28550;51.228;4.528;2023-10-19T08:14:47;7.78;;;2.00;;
42904;SDS011;28550;51.228;4.528;2023-10-19T08:17:16;9.80;;;2.42;;
42904;SDS011;28550;51.228;4.528;2023-10-19T08:19:42;4.97;;;1.63;;
42904;SDS011;28550;51.228;4.528;2023-10-19T08:22:47;4.60;;;1.95;;
42904;SDS011;28550;51.228;4.528;2023-10-19T08:25:31;4.53;;;1.67;;
42904;SDS011;28550;51.228;4.528;2023-10-19T08:28:00;4.57;;;1.55;;
42904;SDS011;28550;51.228;4.528;2023-10-19T08:30:27;6.93;;;2.50;;
42904;SDS011;28550;51.228;4.528;2023-10-19T08:32:55;5.53;;;1.85;;
42904;SDS011;28550;51.228;4.528;2023-10-19T08:35:23;14.77;;;2.72;;
42904;SDS011;28550;51.228;4.528;2023-10-19T08:37:58;7.03;;;1.73;;
42904;SDS011;28550;51.228;4.528;2023-10-19T08:40:26;8.02;;;2.15;;
42904;SDS011;28550;51.228;4.528;2023-10-19T08:42:55;7.82;;;2.47;;
42904;SDS011;28550;51.228;4.528;2023-10-19T08:45:21;11.25;;;3.20;;
42904;SDS011;28550;51.228;4.528;2023-10-19T08:47:54;10.70;;;3.17;;
42904;SDS011;28550;51.228;4.528;2023-10-19T08:50:34;8.38;;;2.50;;
42904;SDS011;28550;51.228;4.528;2023-10-19T08:53:01;7.50;;;2.78;;
42904;SDS011;28550;51.228;4.528;2023-10-19T08:55:28;5.35;;;2.78;;
42904;SDS011;28550;51.228;4.528;2023-10-19T08:57:55;12.05;;;3.10;;
42904;SDS011;28550;51.228;4.528;2023-10-19T09:00:26;9.65;;;2.40;;
42904;SDS011;28550;51.228;4.528;2023-10-19T09:02:52;9.25;;;2.85;;
42904;SDS011;28550;51.228;4.528;2023-10-19T09:05:21;10.75;;;3.55;;
42904;SDS011;28550;51.228;4.528;2023-10-19T09:07:51;9.82;;;2.22;;
42904;SDS011;28550;51.228;4.528;2023-10-19T09:10:25;13.68;;;2.50;;
42904;SDS011;28550;51.228;4.528;2023-10-19T09:13:01;5.95;;;2.42;;
42904;SDS011;28550;51.228;4.528;2023-10-19T09:15:30;8.25;;;2.58;;
42904;SDS011;28550;51.228;4.528;2023-10-19T09:17:58;11.45;;;2.58;;
42904;SDS011;28550;51.228;4.528;2023-10-19T09:20:37;9.93;;;2.50;;
42904;SDS011;28550;51.228;4.528;2023-10-19T09:23:03;11.45;;;3.05;;
42904;SDS011;28550;51.228;4.528;2023-10-19T09:25:28;6.97;;;2.67;;
42904;SDS011;28550;51.228;4.528;2023-10-19T09:27:54;6.00;;;2.63;;
42904;SDS011;28550;51.228;4.528;2023-10-19T09:30:20;9.38;;;2.25;;
42904;SDS011;28550;51.228;4.528;2023-10-19T09:32:48;10.52;;;2.85;;
42904;SDS011;28550;51.228;4.528;2023-10-19T09:35:14;8.18;;;2.65;;
42904;SDS011;28550;51.228;4.528;2023-10-19T09:37:42;10.95;;;2.17;;
42904;SDS011;28550;51.228;4.528;2023-10-19T09:40:10;10.65;;;3.10;;
42904;SDS011;28550;51.228;4.528;2023-10-19T09:42:40;8.90;;;2.53;;
42904;SDS011;28550;51.228;4.528;2023-10-19T09:45:13;7.32;;;2.55;;
42904;SDS011;28550;51.228;4.528;2023-10-19T09:47:47;15.02;;;3.17;;
42904;SDS011;28550;51.228;4.528;2023-10-19T09:50:16;8.20;;;2.63;;
42904;SDS011;28550;51.228;4.528;2023-10-19T09:52:42;10.00;;;3.72;;
42904;SDS011;28550;51.228;4.528;2023-10-19T09:58:02;4.85;;;2.67;;
42904;SDS011;28550;51.228;4.528;2023-10-19T10:00:46;8.15;;;2.88;;
42904;SDS011;28550;51.228;4.528;2023-10-19T10:06:10;11.13;;;3.22;;
42904;SDS011;28550;51.228;4.528;2023-10-19T10:08:39;13.18;;;2.67;;
42904;SDS011;28550;51.228;4.528;2023-10-19T10:11:15;8.55;;;3.08;;
42904;SDS011;28550;51.228;4.528;2023-10-19T10:17:11;8.63;;;3.00;;
42904;SDS011;28550;51.228;4.528;2023-10-19T10:20:33;10.93;;;3.25;;
42904;SDS011;28550;51.228;4.528;2023-10-19T10:23:16;12.02;;;2.97;;
42904;SDS011;28550;51.228;4.528;2023-10-19T10:25:45;10.52;;;2.50;;
42904;SDS011;28550;51.228;4.528;2023-10-19T10:28:16;17.60;;;3.30;;
42904;SDS011;28550;51.228;4.528;2023-10-19T10:31:27;13.48;;;3.22;;
42904;SDS011;28550;51.228;4.528;2023-10-19T10:33:41;7.50;;;2.50;;
42904;SDS011;28550;51.228;4.528;2023-10-19T10:36:12;10.43;;;2.22;;
42904;SDS011;28550;51.228;4.528;2023-10-19T10:38:40;18.58;;;3.70;;
42904;SDS011;28550;51.228;4.528;2023-10-19T10:41:06;15.30;;;3.50;;
42904;SDS011;28550;51.228;4.528;2023-10-19T10:43:48;7.15;;;2.45;;
42904;SDS011;28550;51.228;4.528;2023-10-19T10:46:39;10.35;;;3.03;;
42904;SDS011;28550;51.228;4.528;2023-10-19T10:49:08;12.35;;;3.13;;
42904;SDS011;28550;51.228;4.528;2023-10-19T10:51:34;16.17;;;3.70;;
42904;SDS011;28550;51.228;4.528;2023-10-19T10:54:00;13.13;;;3.20;;
42904;SDS011;28550;51.228;4.528;2023-10-19T10:56:26;12.98;;;3.17;;
42904;SDS011;28550;51.228;4.528;2023-10-19T10:58:51;9.18;;;2.85;;
42904;SDS011;28550;51.228;4.528;2023-10-19T11:01:32;10.95;;;3.47;;
42904;SDS011;28550;51.228;4.528;2023-10-19T11:04:07;10.90;;;3.80;;
42904;SDS011;28550;51.228;4.528;2023-10-19T11:06:50;8.45;;;2.95;;
42904;SDS011;28550;51.228;4.528;2023-10-19T11:09:18;9.57;;;3.03;;
42904;SDS011;28550;51.228;4.528;2023-10-19T11:11:47;11.35;;;3.25;;
42904;SDS011;28550;51.228;4.528;2023-10-19T11:17:43;8.23;;;3.30;;
42904;SDS011;28550;51.228;4.528;2023-10-19T11:20:20;9.15;;;3.40;;
42904;SDS011;28550;51.228;4.528;2023-10-19T11:23:02;11.23;;;3.13;;
42904;SDS011;28550;51.228;4.528;2023-10-19T11:25:31;9.95;;;3.40;;
42904;SDS011;28550;51.228;4.528;2023-10-19T11:27:57;10.50;;;3.25;;
42904;SDS011;28550;51.228;4.528;2023-10-19T11:30:26;8.38;;;2.88;;
42904;SDS011;28550;51.228;4.528;2023-10-19T11:33:03;9.50;;;3.13;;
42904;SDS011;28550;51.228;4.528;2023-10-19T11:35:30;15.82;;;4.90;;
42904;SDS011;28550;51.228;4.528;2023-10-19T11:37:58;12.57;;;3.42;;
42904;SDS011;28550;51.228;4.528;2023-10-19T11:40:25;7.32;;;2.80;;
42904;SDS011;28550;51.228;4.528;2023-10-19T11:42:52;10.25;;;3.90;;
42904;SDS011;28550;51.228;4.528;2023-10-19T11:45:29;18.98;;;3.90;;
42904;SDS011;28550;51.228;4.528;2023-10-19T11:47:57;11.48;;;3.30;;
42904;SDS011;28550;51.228;4.528;2023-10-19T11:50:24;12.25;;;3.60;;
42904;SDS011;28550;51.228;4.528;2023-10-19T11:52:50;11.88;;;3.88;;
42904;SDS011;28550;51.228;4.528;2023-10-19T11:55:35;14.20;;;3.95;;
42904;SDS011;28550;51.228;4.528;2023-10-19T11:58:07;11.35;;;3.92;;
42904;SDS011;28550;51.228;4.528;2023-10-19T12:00:36;10.10;;;3.22;;
42904;SDS011;28550;51.228;4.528;2023-10-19T12:03:03;9.40;;;3.35;;
42904;SDS011;28550;51.228;4.528;2023-10-19T12:05:29;10.23;;;3.40;;
42904;SDS011;28550;51.228;4.528;2023-10-19T12:07:55;10.77;;;3.80;;
42904;SDS011;28550;51.228;4.528;2023-10-19T12:10:23;12.00;;;4.10;;
42904;SDS011;28550;51.228;4.528;2023-10-19T12:12:57;10.00;;;3.90;;
42904;SDS011;28550;51.228;4.528;2023-10-19T12:15:23;17.80;;;4.72;;
42904;SDS011;28550;51.228;4.528;2023-10-19T12:17:50;9.65;;;4.28;;
42904;SDS011;28550;51.228;4.528;2023-10-19T12:20:16;10.55;;;4.15;;
42904;SDS011;28550;51.228;4.528;2023-10-19T12:22:46;10.60;;;4.07;;
42904;SDS011;28550;51.228;4.528;2023-10-19T12:25:13;10.95;;;4.28;;
42904;SDS011;28550;51.228;4.528;2023-10-19T12:27:39;11.27;;;4.30;;
42904;SDS011;28550;51.228;4.528;2023-10-19T12:30:07;13.90;;;4.40;;
42904;SDS011;28550;51.228;4.528;2023-10-19T12:32:45;7.30;;;3.67;;
42904;SDS011;28550;51.228;4.528;2023-10-19T12:35:14;13.55;;;3.92;;
42904;SDS011;28550;51.228;4.528;2023-10-19T12:37:40;12.98;;;4.63;;
42904;SDS011;28550;51.228;4.528;2023-10-19T12:40:14;7.53;;;4.55;;
42904;SDS011;28550;51.228;4.528;2023-10-19T12:42:59;17.50;;;4.45;;
42904;SDS011;28550;51.228;4.528;2023-10-19T12:45:28;12.80;;;4.25;;
42904;SDS011;28550;51.228;4.528;2023-10-19T12:47:54;10.90;;;3.97;;
42904;SDS011;28550;51.228;4.528;2023-10-19T12:50:20;12.05;;;4.30;;
42904;SDS011;28550;51.228;4.528;2023-10-19T12:53:00;16.02;;;5.45;;
42904;SDS011;28550;51.228;4.528;2023-10-19T12:55:26;13.75;;;4.25;;
42904;SDS011;28550;51.228;4.528;2023-10-19T12:57:56;10.38;;;3.83;;
42904;SDS011;28550;51.228;4.528;2023-10-19T13:00:23;13.30;;;4.30;;
42904;SDS011;28550;51.228;4.528;2023-10-19T13:02:49;12.82;;;4.13;;
42904;SDS011;28550;51.228;4.528;2023-10-19T13:05:15;12.32;;;4.18;;
42904;SDS011;28550;51.228;4.528;2023-10-19T13:07:43;11.05;;;3.75;;
42904;SDS011;28550;51.228;4.528;2023-10-19T13:10:15;13.15;;;4.70;;
42904;SDS011;28550;51.228;4.528;2023-10-19T13:12:41;12.30;;;4.32;;
42904;SDS011;28550;51.228;4.528;2023-10-19T13:15:07;11.52;;;3.97;;
42904;SDS011;28550;51.228;4.528;2023-10-19T13:17:39;13.18;;;4.65;;
42904;SDS011;28550;51.228;4.528;2023-10-19T13:20:05;6.97;;;3.97;;
42904;SDS011;28550;51.228;4.528;2023-10-19T13:22:41;11.32;;;4.55;;
42904;SDS011;28550;51.228;4.528;2023-10-19T13:25:07;13.90;;;5.30;;
42904;SDS011;28550;51.228;4.528;2023-10-19T13:27:42;9.75;;;4.55;;
42904;SDS011;28550;51.228;4.528;2023-10-19T13:30:09;8.35;;;4.93;;
42904;SDS011;28550;51.228;4.528;2023-10-19T13:32:36;7.95;;;3.85;;
42904;SDS011;28550;51.228;4.528;2023-10-19T13:35:03;10.40;;;4.28;;
42904;SDS011;28550;51.228;4.528;2023-10-19T13:37:29;7.22;;;3.60;;
42904;SDS011;28550;51.228;4.528;2023-10-19T13:39:55;6.00;;;2.53;;
42904;SDS011;28550;51.228;4.528;2023-10-19T13:42:22;10.30;;;3.05;;
42904;SDS011;28550;51.228;4.528;2023-10-19T13:44:50;6.22;;;2.90;;
42904;SDS011;28550;51.228;4.528;2023-10-19T13:47:16;6.28;;;2.42;;
42904;SDS011;28550;51.228;4.528;2023-10-19T13:49:48;6.28;;;2.53;;
42904;SDS011;28550;51.228;4.528;2023-10-19T13:52:14;3.83;;;1.85;;
42904;SDS011;28550;51.228;4.528;2023-10-19T13:54:40;8.75;;;2.00;;
42904;SDS011;28550;51.228;4.528;2023-10-19T13:57:19;5.13;;;2.10;;
42904;SDS011;28550;51.228;4.528;2023-10-19T13:59:49;6.05;;;2.22;;
42904;SDS011;28550;51.228;4.528;2023-10-19T14:02:15;5.82;;;1.65;;
42904;SDS011;28550;51.228;4.528;2023-10-19T14:04:41;3.70;;;1.80;;
42904;SDS011;28550;51.228;4.528;2023-10-19T14:07:07;7.53;;;1.95;;
42904;SDS011;28550;51.228;4.528;2023-10-19T14:09:33;6.50;;;1.60;;
42904;SDS011;28550;51.228;4.528;2023-10-19T14:12:01;5.20;;;1.70;;
42904;SDS011;28550;51.228;4.528;2023-10-19T14:14:29;8.18;;;1.50;;
42904;SDS011;28550;51.228;4.528;2023-10-19T14:16:55;3.00;;;1.92;;
42904;SDS011;28550;51.228;4.528;2023-10-19T14:19:30;3.25;;;1.52;;
42904;SDS011;28550;51.228;4.528;2023-10-19T14:22:11;3.63;;;1.40;;
42904;SDS011;28550;51.228;4.528;2023-10-19T14:24:47;4.43;;;1.50;;
42904;SDS011;28550;51.228;4.528;2023-10-19T14:27:14;4.57;;;1.90;;
42904;SDS011;28550;51.228;4.528;2023-10-19T14:29:49;2.50;;;1.58;;
42904;SDS011;28550;51.228;4.528;2023-10-19T14:32:15;7.55;;;1.80;;
42904;SDS011;28550;51.228;4.528;2023-10-19T14:34:41;2.75;;;1.60;;
42904;SDS011;28550;51.228;4.528;2023-10-19T14:37:08;3.42;;;1.40;;
42904;SDS011;28550;51.228;4.528;2023-10-19T14:39:33;6.95;;;3.08;;
42904;SDS011;28550;51.228;4.528;2023-10-19T14:41:59;1.85;;;1.65;;
42904;SDS011;28550;51.228;4.528;2023-10-19T14:44:32;5.25;;;1.33;;
42904;SDS011;28550;51.228;4.528;2023-10-19T14:47:00;3.65;;;1.50;;
42904;SDS011;28550;51.228;4.528;2023-10-19T14:49:29;1.40;;;1.27;;
42904;SDS011;28550;51.228;4.528;2023-10-19T14:51:56;3.33;;;1.90;;
42904;SDS011;28550;51.228;4.528;2023-10-19T14:54:22;2.28;;;1.40;;
42904;SDS011;28550;51.228;4.528;2023-10-19T14:56:47;3.05;;;1.40;;
42904;SDS011;28550;51.228;4.528;2023-10-19T14:59:16;2.38;;;1.23;;
42904;SDS011;28550;51.228;4.528;2023-10-19T15:01:44;3.63;;;1.80;;
42904;SDS011;28550;51.228;4.528;2023-10-19T15:04:10;6.05;;;1.95;;
42904;SDS011;28550;51.228;4.528;2023-10-19T15:06:35;2.33;;;1.20;;
42904;SDS011;28550;51.228;4.528;2023-10-19T15:09:01;5.47;;;1.25;;
42904;SDS011;28550;51.228;4.528;2023-10-19T15:11:27;4.30;;;1.48;;
42904;SDS011;28550;51.228;4.528;2023-10-19T15:13:53;2.95;;;1.30;;
42904;SDS011;28550;51.228;4.528;2023-10-19T15:16:19;2.47;;;1.40;;
42904;SDS011;28550;51.228;4.528;2023-10-19T15:18:45;2.72;;;1.50;;
42904;SDS011;28550;51.228;4.528;2023-10-19T15:21:11;1.45;;;1.17;;
42904;SDS011;28550;51.228;4.528;2023-10-19T15:23:39;4.28;;;1.40;;
42904;SDS011;28550;51.228;4.528;2023-10-19T15:26:07;2.67;;;1.40;;
42904;SDS011;28550;51.228;4.528;2023-10-19T15:28:33;3.33;;;1.45;;
42904;SDS011;28550;51.228;4.528;2023-10-19T15:30:59;2.83;;;1.85;;